Duke Field,(Eglin Af Aux Nr 3) Airport
KEGI : now visible

Airfield :











YOU CAN JOIN US ON...

 
LOGIN :

Register | Disclaimer

   EN    FR    IT 

 









Legend :    VFR   Marginal VFR   IFR   Intensive IFR   Very Intensive IFR
Visi :
Ceiling :
>= 8 km
>= 3000ft
5 to 8 km
1000 to 3000 ft
1500m to 5 km
500 to 1000 ft
800 to 1500m
200 to 500 ft
< 800m
< 200 ft
Symbols :   Thunderstorms  Fog  Heavy snow  Heavy precipitations  Wind > 20 kt






- Airport Elevation : 191 ft


KEGI - Duke Field,(Eglin Af Aux Nr 3)

CURRENT METAR :
  • 220156Z AUTO 34008KT 10SM CLR 14/02 A3014 RMK AO2 SLPNO T01360016 $

EXPIRED METARs :
  • 220056Z AUTO 35006KT 10SM CLR 14/01 A3009 RMK AO2 SLPNO T01390005 $
  • 212356Z AUTO 34008KT 10SM CLR 17/M01 A3008 RMK AO2 SLP187 T01741008 10228 20174 53014 $

TAF TAF KEGI
Valid from the 22 at 01:00 until the 23 at 07:00 UTC


220100Z 2201/2307 01006KT 9999 SKC QNH3010INS
BECMG 2214/2215 05010G15KT 9999 SKC QNH3012INS
BECMG 2223/2224 06006KT 9999 SKC QNH3009INS
BECMG 2305/2306 06006KT 9999 SCT200 QNH3008INS TX23/2220Z TN08/2211Z
KZJX FIR / North America



MET'MAP, your aeronautical weather chart ! - Copyright ORBIFLY December 2007 - Disclaimer

ORBIFLY MET'MAP TEAM :

Programming & Development : Alexandra Zaïnal
Concept & original design : Baudouin d'Aumeries
Assistance for programming : Marc-Olivier Méhu
Technical & hardware support : Manuel Goepfert

Contact : metmap@orbifly.com




SOURCES & CREDITS :

   NOAA       Earth
Advisory